createdAt,value
2022-09-03T00:02:28.113Z,101142.88
2022-09-03T00:08:06.369Z,101141.63
2022-09-03T00:13:10.193Z,101137.61
2022-09-03T00:18:22.359Z,101133.45
2022-09-03T00:23:28.197Z,101127.80
2022-09-03T00:28:54.636Z,101121.84
2022-09-03T00:34:05.830Z,101119.81
2022-09-03T00:39:15.931Z,101116.69
2022-09-03T00:44:34.875Z,101119.07
2022-09-03T00:49:55.696Z,101122.34
2022-09-03T00:55:36.076Z,101128.23
2022-09-03T01:00:43.173Z,101130.85
2022-09-03T01:06:34.817Z,101130.60
2022-09-03T01:11:45.092Z,101130.57
2022-09-03T01:17:23.320Z,101134.36
2022-09-03T01:22:39.227Z,101130.73
2022-09-03T01:28:09.878Z,101133.63
2022-09-03T01:33:49.952Z,101132.39
2022-09-03T01:39:07.494Z,101128.55
2022-09-03T01:44:32.411Z,101129.63
2022-09-03T01:49:49.852Z,101136.15
2022-09-03T01:55:21.064Z,101134.61
2022-09-03T02:00:24.839Z,101133.67
2022-09-03T02:05:28.867Z,101123.65
2022-09-03T02:10:44.577Z,101130.14
2022-09-03T02:15:50.167Z,101133.83
2022-09-03T02:20:54.064Z,101121.17
2022-09-03T02:25:59.294Z,101117.86
2022-09-03T02:31:01.533Z,101121.45
2022-09-03T02:36:08.002Z,101118.83
2022-09-03T02:41:14.668Z,101126.88
2022-09-03T02:46:27.242Z,101120.23
2022-09-03T02:51:38.704Z,101117.14
2022-09-03T02:56:40.884Z,101119.13
2022-09-03T03:01:43.407Z,101123.41
2022-09-03T03:06:50.372Z,101118.25
2022-09-03T03:11:54.501Z,101112.25
2022-09-03T03:16:56.334Z,101109.36
2022-09-03T03:21:58.666Z,101118.46
2022-09-03T03:27:00.541Z,101118.25
2022-09-03T03:32:02.826Z,101114.08
2022-09-03T03:37:05.624Z,101114.34
2022-09-03T03:42:07.604Z,101117.49
2022-09-03T03:47:09.699Z,101125.05
2022-09-03T03:52:11.666Z,101132.41
2022-09-03T03:57:13.951Z,101132.42
2022-09-03T04:02:17.209Z,101123.61
2022-09-03T04:07:19.138Z,101115.05
2022-09-03T04:12:21.118Z,101123.25
2022-09-03T04:17:25.244Z,101139.08
2022-09-03T04:22:29.219Z,101134.79
2022-09-03T04:27:31.048Z,101128.03
2022-09-03T04:32:52.597Z,101131.86
2022-09-03T04:37:54.975Z,101137.93
2022-09-03T04:42:59.039Z,101142.43
2022-09-03T04:48:04.827Z,101146.20
2022-09-03T04:53:08.100Z,101155.06
2022-09-03T04:58:10.479Z,101155.63
2022-09-03T05:03:12.658Z,101149.59
2022-09-03T05:08:14.530Z,101147.27
2022-09-03T05:13:17.636Z,101147.91
2022-09-03T05:18:19.603Z,101153.87
2022-09-03T05:23:22.105Z,101159.20
2022-09-03T05:28:27.625Z,101158.35
2022-09-03T05:33:38.157Z,101165.06
2022-09-03T05:38:40.134Z,101164.30
2022-09-03T05:43:42.516Z,101167.73
2022-09-03T05:48:45.214Z,101159.23
2022-09-03T05:53:48.729Z,101161.93
2022-09-03T05:58:52.961Z,101164.67
2022-09-03T06:03:57.801Z,101160.36
2022-09-03T06:09:02.878Z,101161.71
2022-09-03T06:14:07.806Z,101162.91
2022-09-03T06:19:10.780Z,101168.10
2022-09-03T06:24:16.018Z,101165.13
2022-09-03T06:29:19.887Z,101162.15
2022-09-03T06:34:22.999Z,101163.70
2022-09-03T06:39:26.730Z,101172.71
2022-09-03T06:44:28.999Z,101177.66
2022-09-03T06:49:31.194Z,101182.05
2022-09-03T06:54:33.060Z,101186.69
2022-09-03T06:59:34.943Z,101186.25
2022-09-03T07:04:36.917Z,101190.77
2022-09-03T07:09:40.036Z,101184.60
2022-09-03T07:14:42.034Z,101181.27
2022-09-03T07:19:45.005Z,101186.38
2022-09-03T07:24:47.602Z,101190.29
2022-09-03T07:29:49.785Z,101182.33
2022-09-03T07:34:52.583Z,101186.13
2022-09-03T07:39:54.799Z,101191.11
2022-09-03T07:44:57.882Z,101190.90
2022-09-03T07:50:00.472Z,101194.56
2022-09-03T07:55:05.449Z,101195.24
2022-09-03T08:00:12.673Z,101199.02
2022-09-03T08:05:15.312Z,101201.23
2022-09-03T08:10:17.811Z,101199.83
2022-09-03T08:15:20.404Z,101198.56
2022-09-03T08:20:22.936Z,101195.14
2022-09-03T08:25:25.174Z,101185.41
2022-09-03T08:30:27.565Z,101181.30
2022-09-03T08:35:30.057Z,101177.09
2022-09-03T08:40:36.953Z,101177.29
2022-09-03T08:45:39.238Z,101178.71
2022-09-03T08:50:55.654Z,101174.20
2022-09-03T08:56:08.398Z,101173.36
2022-09-03T09:01:26.360Z,101177.11
2022-09-03T09:06:59.960Z,101174.20
2022-09-03T09:12:23.550Z,101173.52
2022-09-03T09:17:32.399Z,101171.15
2022-09-03T09:22:47.408Z,101163.38
2022-09-03T09:28:01.975Z,101163.95
2022-09-03T09:33:04.140Z,101158.30
2022-09-03T09:38:06.108Z,101158.29
2022-09-03T09:43:21.709Z,101156.02
2022-09-03T09:48:33.722Z,101146.73
2022-09-03T09:53:36.128Z,101145.61
2022-09-03T09:58:38.601Z,101144.40
2022-09-03T10:03:50.616Z,101135.27
2022-09-03T10:09:16.664Z,101128.23
2022-09-03T10:14:32.260Z,101131.70
2022-09-03T10:20:21.239Z,101128.41
2022-09-03T10:25:26.674Z,101121.00
2022-09-03T10:30:46.031Z,101120.54
2022-09-03T10:35:57.804Z,101114.08
2022-09-03T10:41:02.659Z,101117.06
2022-09-03T10:46:18.385Z,101111.67
2022-09-03T10:51:31.192Z,101107.95
2022-09-03T10:57:01.219Z,101108.30
2022-09-03T11:02:22.734Z,101102.95
2022-09-03T11:07:37.735Z,101100.15
2022-09-03T11:12:46.798Z,101098.45
2022-09-03T11:17:58.798Z,101096.27
2022-09-03T11:23:04.504Z,101094.52
2022-09-03T11:28:18.729Z,101097.51
2022-09-03T11:33:24.860Z,101086.70
2022-09-03T11:38:30.787Z,101085.38
2022-09-03T11:43:34.089Z,101084.54
2022-09-03T11:48:38.367Z,101082.58
2022-09-03T11:53:40.712Z,101083.20
2022-09-03T11:58:43.207Z,101081.92
2022-09-03T12:03:53.215Z,101072.75
2022-09-03T12:09:25.974Z,101059.55
2022-09-03T12:14:46.897Z,101059.63
2022-09-03T12:19:54.926Z,101054.84
2022-09-03T12:25:12.927Z,101045.09
2022-09-03T12:30:18.582Z,101035.69
2022-09-03T12:46:15.140Z,101026.64
2022-09-03T12:56:42.612Z,101017.42
2022-09-03T13:01:53.246Z,101011.23
2022-09-03T13:07:03.746Z,101012.52
2022-09-03T13:12:06.542Z,101027.69
2022-09-03T13:17:14.967Z,101024.20
2022-09-03T13:22:44.529Z,101020.71
2022-09-03T13:28:05.007Z,101012.25
2022-09-03T13:33:26.529Z,101007.93
2022-09-03T13:38:50.131Z,101006.88
2022-09-03T13:44:08.159Z,100997.71
2022-09-03T13:49:51.126Z,100994.63
2022-09-03T13:55:00.092Z,100995.39
2022-09-03T14:00:12.085Z,100990.16
2022-09-03T14:05:47.320Z,100984.08
2022-09-03T14:10:57.419Z,100980.87
2022-09-03T14:16:11.736Z,100972.95
2022-09-03T14:21:21.117Z,100969.76
2022-09-03T14:26:39.562Z,100966.84
2022-09-03T14:31:54.032Z,100963.09
2022-09-03T14:37:25.647Z,100955.91
2022-09-03T14:42:57.530Z,100959.73
2022-09-03T14:48:02.066Z,100957.40
2022-09-03T14:53:06.615Z,100957.23
2022-09-03T14:58:24.150Z,100952.38
2022-09-03T15:03:40.670Z,100950.06
2022-09-03T15:09:02.834Z,100948.38
2022-09-03T15:14:20.370Z,100950.48
2022-09-03T15:19:54.299Z,100949.06
2022-09-03T15:25:16.247Z,100946.13
2022-09-03T15:30:20.380Z,100954.65
2022-09-03T15:35:40.000Z,100954.16
2022-09-03T15:40:45.541Z,100954.09
2022-09-03T15:45:47.805Z,100956.89
2022-09-03T15:51:03.008Z,100959.11
2022-09-03T15:56:18.519Z,100959.39
2022-09-03T16:01:32.157Z,100959.86
2022-09-03T16:07:05.365Z,100960.23
2022-09-03T16:12:44.934Z,100962.76
2022-09-03T16:18:01.306Z,100966.18
2022-09-03T16:23:19.516Z,100966.09
2022-09-03T16:28:28.760Z,100969.45
2022-09-03T16:34:07.805Z,100969.94
2022-09-03T16:39:10.548Z,100967.95
2022-09-03T16:44:45.664Z,100969.66
2022-09-03T16:49:50.622Z,100970.23
2022-09-03T16:55:25.761Z,100969.15
2022-09-03T17:00:54.835Z,100969.28
2022-09-03T17:06:32.503Z,100970.59
2022-09-03T17:11:40.723Z,100968.69
2022-09-03T17:17:01.656Z,100975.11
2022-09-03T17:22:41.303Z,100973.02
2022-09-03T17:28:07.470Z,100984.90
2022-09-03T17:33:44.655Z,100989.13
2022-09-03T17:39:05.173Z,100993.88
2022-09-03T17:44:28.857Z,100997.80
2022-09-03T17:50:24.075Z,101003.98
2022-09-03T17:55:30.789Z,100998.50
2022-09-03T18:01:03.067Z,101007.41
2022-09-03T18:06:41.915Z,101005.58
2022-09-03T18:11:48.944Z,101010.33
2022-09-03T18:17:29.701Z,101015.89
2022-09-03T18:23:01.690Z,101020.46
2022-09-03T18:28:28.863Z,101026.28
2022-09-03T18:33:50.089Z,101024.92
2022-09-03T18:39:11.740Z,101027.67
2022-09-03T18:45:06.603Z,101033.16
2022-09-03T18:51:03.042Z,101043.44
2022-09-03T18:56:42.358Z,101045.45
2022-09-03T19:02:03.986Z,101038.95
2022-09-03T19:07:40.172Z,101041.92
2022-09-03T19:13:15.138Z,101044.77
2022-09-03T19:18:36.157Z,101051.84
2022-09-03T19:23:58.409Z,101056.64
2022-09-03T19:29:27.010Z,101056.08
2022-09-03T19:35:20.201Z,101058.77
2022-09-03T19:41:03.327Z,101059.94
2022-09-03T19:46:33.706Z,101065.48
2022-09-03T19:52:07.705Z,101065.79
2022-09-03T19:57:32.378Z,101069.63
2022-09-03T20:02:53.973Z,101072.30
2022-09-03T20:08:17.179Z,101071.59
2022-09-03T20:13:20.570Z,101074.42
2022-09-03T20:18:44.562Z,101081.09
2022-09-03T20:24:00.340Z,101086.73
2022-09-03T20:29:14.403Z,101090.88
2022-09-03T20:34:35.126Z,101094.74
2022-09-03T20:39:45.052Z,101098.70
2022-09-03T20:45:19.841Z,101099.33
2022-09-03T20:50:53.050Z,101099.15
2022-09-03T20:56:00.973Z,101106.41
2022-09-03T21:01:07.398Z,101105.97
2022-09-03T21:06:30.191Z,101107.58
2022-09-03T21:11:58.749Z,101111.89
2022-09-03T21:17:30.193Z,101113.48
2022-09-03T21:22:40.670Z,101116.27
2022-09-03T21:27:54.775Z,101115.42
2022-09-03T21:33:03.283Z,101118.53
2022-09-03T21:38:12.308Z,101118.39
2022-09-03T21:43:50.640Z,101125.32
2022-09-03T21:48:57.740Z,101132.39
2022-09-03T21:54:21.221Z,101135.07
2022-09-03T21:59:36.015Z,101138.26
2022-09-03T22:04:37.880Z,101135.92
2022-09-03T22:09:50.689Z,101135.86
2022-09-03T22:14:55.248Z,101132.44
2022-09-03T22:19:57.640Z,101134.38
2022-09-03T22:25:10.268Z,101135.63
2022-09-03T22:30:21.000Z,101130.41
2022-09-03T22:35:38.803Z,101128.02
2022-09-03T22:41:32.290Z,101126.30
2022-09-03T22:46:49.833Z,101125.45
2022-09-03T22:52:00.416Z,101124.05
2022-09-03T22:57:04.452Z,101120.73
2022-09-03T23:02:26.291Z,101120.13
2022-09-03T23:07:53.302Z,101122.44
2022-09-03T23:13:09.365Z,101129.30
2022-09-03T23:18:20.069Z,101132.42
2022-09-03T23:23:29.194Z,101134.13
2022-09-03T23:28:36.457Z,101134.95
2022-09-03T23:33:39.294Z,101134.97
2022-09-03T23:39:05.893Z,101137.86
2022-09-03T23:44:32.713Z,101139.49
2022-09-03T23:49:46.775Z,101143.06
2022-09-03T23:54:48.446Z,101149.22
